sensor_id;sensor_type;location;lat;lon;timestamp;pressure;altitude;pressure_sealevel;temperature;humidity
13011;BME280;6786;57.632;11.962;2022-11-15T00:01:15;101019.06;;;20.77;55.55
13011;BME280;6786;57.632;11.962;2022-11-15T00:03:44;101012.84;;;20.77;55.67
13011;BME280;6786;57.632;11.962;2022-11-15T00:06:13;101017.22;;;20.78;55.39
13011;BME280;6786;57.632;11.962;2022-11-15T00:08:41;101020.78;;;20.78;55.22
13011;BME280;6786;57.632;11.962;2022-11-15T00:11:11;101006.34;;;20.79;55.50
13011;BME280;6786;57.632;11.962;2022-11-15T00:13:40;100982.84;;;20.62;55.33
13011;BME280;6786;57.632;11.962;2022-11-15T00:16:09;100999.28;;;20.78;55.24
13011;BME280;6786;57.632;11.962;2022-11-15T00:18:38;100923.75;;;20.43;55.46
13011;BME280;6786;57.632;11.962;2022-11-15T00:21:08;100986.81;;;20.77;55.27
13011;BME280;6786;57.632;11.962;2022-11-15T00:23:37;100989.34;;;20.79;55.42
13011;BME280;6786;57.632;11.962;2022-11-15T00:26:05;100982.16;;;20.79;55.42
13011;BME280;6786;57.632;11.962;2022-11-15T00:28:34;100966.16;;;20.68;55.17
13011;BME280;6786;57.632;11.962;2022-11-15T00:31:02;100988.53;;;20.78;55.23
13011;BME280;6786;57.632;11.962;2022-11-15T00:33:32;100981.44;;;20.77;55.50
13011;BME280;6786;57.632;11.962;2022-11-15T00:36:01;100976.94;;;20.78;55.39
13011;BME280;6786;57.632;11.962;2022-11-15T00:38:31;100975.38;;;20.75;55.22
13011;BME280;6786;57.632;11.962;2022-11-15T00:41:00;100983.16;;;20.78;55.37
13011;BME280;6786;57.632;11.962;2022-11-15T00:43:34;100974.38;;;20.76;55.50
13011;BME280;6786;57.632;11.962;2022-11-15T00:46:02;100970.69;;;20.77;55.15
13011;BME280;6786;57.632;11.962;2022-11-15T00:48:32;100959.94;;;20.77;55.47
13011;BME280;6786;57.632;11.962;2022-11-15T00:51:00;100964.50;;;20.77;55.33
13011;BME280;6786;57.632;11.962;2022-11-15T00:53:28;100956.44;;;20.77;55.22
13011;BME280;6786;57.632;11.962;2022-11-15T00:55:56;100959.94;;;20.77;55.37
13011;BME280;6786;57.632;11.962;2022-11-15T00:58:24;100954.59;;;20.77;55.41
13011;BME280;6786;57.632;11.962;2022-11-15T01:00:52;100950.94;;;20.78;55.34
13011;BME280;6786;57.632;11.962;2022-11-15T01:03:21;100945.56;;;20.78;55.49
13011;BME280;6786;57.632;11.962;2022-11-15T01:05:50;100942.00;;;20.78;55.16
13011;BME280;6786;57.632;11.962;2022-11-15T01:08:18;100941.88;;;20.79;55.40
13011;BME280;6786;57.632;11.962;2022-11-15T01:10:46;100938.47;;;20.77;55.30
13011;BME280;6786;57.632;11.962;2022-11-15T01:13:14;100935.09;;;20.75;55.25
13011;BME280;6786;57.632;11.962;2022-11-15T01:15:42;100943.56;;;20.80;55.24
13011;BME280;6786;57.632;11.962;2022-11-15T01:18:11;100937.34;;;20.80;55.23
13011;BME280;6786;57.632;11.962;2022-11-15T01:20:40;100938.19;;;20.80;55.14
13011;BME280;6786;57.632;11.962;2022-11-15T01:23:09;100928.44;;;20.79;55.07
13011;BME280;6786;57.632;11.962;2022-11-15T01:25:37;100931.13;;;20.79;55.27
13011;BME280;6786;57.632;11.962;2022-11-15T01:28:06;100922.34;;;20.77;55.00
13011;BME280;6786;57.632;11.962;2022-11-15T01:30:35;100918.69;;;20.78;55.03
13011;BME280;6786;57.632;11.962;2022-11-15T01:33:03;100927.56;;;20.79;55.32
13011;BME280;6786;57.632;11.962;2022-11-15T01:35:32;100932.13;;;20.78;55.11
13011;BME280;6786;57.632;11.962;2022-11-15T01:37:59;100925.75;;;20.79;55.07
13011;BME280;6786;57.632;11.962;2022-11-15T01:40:29;100933.81;;;20.79;55.12
13011;BME280;6786;57.632;11.962;2022-11-15T01:42:57;100929.44;;;20.78;55.12
13011;BME280;6786;57.632;11.962;2022-11-15T01:45:25;100918.69;;;20.78;55.14
13011;BME280;6786;57.632;11.962;2022-11-15T01:47:54;100920.38;;;20.79;55.14
13011;BME280;6786;57.632;11.962;2022-11-15T01:50:25;100904.81;;;20.73;55.14
13011;BME280;6786;57.632;11.962;2022-11-15T01:52:55;100907.94;;;20.78;55.24
13011;BME280;6786;57.632;11.962;2022-11-15T01:55:26;100909.78;;;20.78;54.96
13011;BME280;6786;57.632;11.962;2022-11-15T01:57:59;100902.56;;;20.78;54.89
13011;BME280;6786;57.632;11.962;2022-11-15T02:00:28;100906.22;;;20.77;54.93
13011;BME280;6786;57.632;11.962;2022-11-15T02:02:56;100897.47;;;20.75;55.17
13011;BME280;6786;57.632;11.962;2022-11-15T02:05:25;100899.16;;;20.76;54.98
13011;BME280;6786;57.632;11.962;2022-11-15T02:07:53;100894.66;;;20.77;55.05
13011;BME280;6786;57.632;11.962;2022-11-15T02:10:23;100889.00;;;20.70;55.16
13011;BME280;6786;57.632;11.962;2022-11-15T02:12:53;100895.47;;;20.77;55.06
13011;BME280;6786;57.632;11.962;2022-11-15T02:15:28;100889.28;;;20.77;54.92
13011;BME280;6786;57.632;11.962;2022-11-15T02:18:09;100885.59;;;20.78;54.78
13011;BME280;6786;57.632;11.962;2022-11-15T02:20:43;100900.84;;;20.77;54.74
13011;BME280;6786;57.632;11.962;2022-11-15T02:23:37;100891.97;;;20.77;54.63
13011;BME280;6786;57.632;11.962;2022-11-15T02:26:30;100879.38;;;20.77;54.49
13011;BME280;6786;57.632;11.962;2022-11-15T02:29:07;100876.00;;;20.75;54.77
13011;BME280;6786;57.632;11.962;2022-11-15T02:31:43;100875.13;;;20.75;54.72
13011;BME280;6786;57.632;11.962;2022-11-15T02:34:19;100876.00;;;20.75;54.94
13011;BME280;6786;57.632;11.962;2022-11-15T02:37:00;100867.06;;;20.75;54.96
13011;BME280;6786;57.632;11.962;2022-11-15T02:39:35;100864.38;;;20.75;54.84
13011;BME280;6786;57.632;11.962;2022-11-15T02:42:08;100865.25;;;20.75;54.82
13011;BME280;6786;57.632;11.962;2022-11-15T02:45:07;100868.91;;;20.74;54.73
13011;BME280;6786;57.632;11.962;2022-11-15T02:47:41;100863.53;;;20.74;54.83
13011;BME280;6786;57.632;11.962;2022-11-15T02:50:13;100865.25;;;20.75;54.77
13011;BME280;6786;57.632;11.962;2022-11-15T02:52:45;100864.25;;;20.76;54.90
13011;BME280;6786;57.632;11.962;2022-11-15T02:55:27;100865.25;;;20.75;54.70
13011;BME280;6786;57.632;11.962;2022-11-15T02:58:07;100857.19;;;20.75;54.85
13011;BME280;6786;57.632;11.962;2022-11-15T03:00:45;100868.91;;;20.74;54.63
13011;BME280;6786;57.632;11.962;2022-11-15T03:03:29;100863.53;;;20.74;54.81
13011;BME280;6786;57.632;11.962;2022-11-15T03:06:08;100863.53;;;20.74;54.58
13011;BME280;6786;57.632;11.962;2022-11-15T03:08:42;100867.22;;;20.73;54.95
13011;BME280;6786;57.632;11.962;2022-11-15T03:11:16;100867.22;;;20.73;54.74
13011;BME280;6786;57.632;11.962;2022-11-15T03:13:48;100870.63;;;20.75;54.94
13011;BME280;6786;57.632;11.962;2022-11-15T03:16:27;100867.94;;;20.75;54.52
13011;BME280;6786;57.632;11.962;2022-11-15T03:18:59;100868.91;;;20.74;54.65
13011;BME280;6786;57.632;11.962;2022-11-15T03:21:31;100867.94;;;20.75;54.84
13011;BME280;6786;57.632;11.962;2022-11-15T03:24:03;100870.63;;;20.75;54.63
13011;BME280;6786;57.632;11.962;2022-11-15T03:26:34;100859.88;;;20.75;54.88
13011;BME280;6786;57.632;11.962;2022-11-15T03:29:05;100867.22;;;20.73;54.85
13011;BME280;6786;57.632;11.962;2022-11-15T03:31:38;100863.53;;;20.74;54.83
13011;BME280;6786;57.632;11.962;2022-11-15T03:34:23;100862.69;;;20.74;54.82
13011;BME280;6786;57.632;11.962;2022-11-15T03:36:53;100855.34;;;20.66;54.95
13011;BME280;6786;57.632;11.962;2022-11-15T03:39:22;100863.00;;;20.71;54.98
13011;BME280;6786;57.632;11.962;2022-11-15T03:41:57;100856.47;;;20.73;54.61
13011;BME280;6786;57.632;11.962;2022-11-15T03:44:36;100853.94;;;20.72;54.43
13011;BME280;6786;57.632;11.962;2022-11-15T03:47:12;100861.84;;;20.73;54.79
13011;BME280;6786;57.632;11.962;2022-11-15T03:49:45;100853.78;;;20.73;54.73
13011;BME280;6786;57.632;11.962;2022-11-15T03:52:17;100861.84;;;20.73;54.74
13011;BME280;6786;57.632;11.962;2022-11-15T03:54:50;100856.47;;;20.73;54.86
13011;BME280;6786;57.632;11.962;2022-11-15T03:57:18;100861.00;;;20.73;54.60
13011;BME280;6786;57.632;11.962;2022-11-15T03:59:46;100858.44;;;20.71;54.75
13011;BME280;6786;57.632;11.962;2022-11-15T04:02:15;100861.84;;;20.73;54.79
13011;BME280;6786;57.632;11.962;2022-11-15T04:04:43;100855.63;;;20.73;54.61
13011;BME280;6786;57.632;11.962;2022-11-15T04:07:11;100856.47;;;20.73;54.88
13011;BME280;6786;57.632;11.962;2022-11-15T04:09:40;100856.47;;;20.73;54.84
13011;BME280;6786;57.632;11.962;2022-11-15T04:12:21;100859.16;;;20.73;54.58
13011;BME280;6786;57.632;11.962;2022-11-15T04:14:58;100854.78;;;20.72;54.73
13011;BME280;6786;57.632;11.962;2022-11-15T04:17:38;100853.06;;;20.71;54.65
13011;BME280;6786;57.632;11.962;2022-11-15T04:20:09;100849.41;;;20.72;54.60
13011;BME280;6786;57.632;11.962;2022-11-15T04:22:56;100853.06;;;20.71;54.70
13011;BME280;6786;57.632;11.962;2022-11-15T04:25:41;100846.88;;;20.71;54.47
13011;BME280;6786;57.632;11.962;2022-11-15T04:28:10;100840.66;;;20.70;54.62
13011;BME280;6786;57.632;11.962;2022-11-15T04:30:38;100836.97;;;20.71;54.51
13011;BME280;6786;57.632;11.962;2022-11-15T04:33:08;100820.16;;;20.69;54.71
13011;BME280;6786;57.632;11.962;2022-11-15T04:35:36;100831.59;;;20.71;54.46
13011;BME280;6786;57.632;11.962;2022-11-15T04:38:05;100828.06;;;20.71;54.67
13011;BME280;6786;57.632;11.962;2022-11-15T04:40:33;100828.22;;;20.69;54.45
13011;BME280;6786;57.632;11.962;2022-11-15T04:43:01;100830.19;;;20.67;54.67
13011;BME280;6786;57.632;11.962;2022-11-15T04:45:29;100830.19;;;20.67;54.77
13011;BME280;6786;57.632;11.962;2022-11-15T04:47:57;100831.88;;;20.68;54.72
13011;BME280;6786;57.632;11.962;2022-11-15T04:50:27;100831.03;;;20.68;54.70
13011;BME280;6786;57.632;11.962;2022-11-15T04:52:55;100826.50;;;20.68;54.48
13011;BME280;6786;57.632;11.962;2022-11-15T04:55:23;100831.88;;;20.68;54.54
13011;BME280;6786;57.632;11.962;2022-11-15T04:57:57;100822.00;;;20.69;54.60
13011;BME280;6786;57.632;11.962;2022-11-15T05:00:27;100817.75;;;20.66;54.75
13011;BME280;6786;57.632;11.962;2022-11-15T05:02:55;100826.50;;;20.68;54.67
13011;BME280;6786;57.632;11.962;2022-11-15T05:05:42;100819.44;;;20.67;54.39
13011;BME280;6786;57.632;11.962;2022-11-15T05:08:10;100815.75;;;20.68;54.55
13011;BME280;6786;57.632;11.962;2022-11-15T05:10:38;100817.75;;;20.66;54.37
13011;BME280;6786;57.632;11.962;2022-11-15T05:13:06;100821.13;;;20.68;54.59
13011;BME280;6786;57.632;11.962;2022-11-15T05:15:34;100815.75;;;20.68;54.39
13011;BME280;6786;57.632;11.962;2022-11-15T05:18:02;100810.38;;;20.68;54.58
13011;BME280;6786;57.632;11.962;2022-11-15T05:20:30;100810.38;;;20.68;54.51
13011;BME280;6786;57.632;11.962;2022-11-15T05:22:59;100800.63;;;20.67;54.70
13011;BME280;6786;57.632;11.962;2022-11-15T05:25:27;100806.72;;;20.69;54.34
13011;BME280;6786;57.632;11.962;2022-11-15T05:27:56;100805.00;;;20.68;54.35
13011;BME280;6786;57.632;11.962;2022-11-15T05:30:24;100806.72;;;20.69;54.49
13011;BME280;6786;57.632;11.962;2022-11-15T05:32:53;100798.66;;;20.69;54.35
13011;BME280;6786;57.632;11.962;2022-11-15T05:35:31;100796.28;;;20.66;54.11
13011;BME280;6786;57.632;11.962;2022-11-15T05:38:03;100797.97;;;20.67;54.46
13011;BME280;6786;57.632;11.962;2022-11-15T05:40:31;100806.72;;;20.69;54.50
13011;BME280;6786;57.632;11.962;2022-11-15T05:43:02;100799.63;;;20.68;54.50
13011;BME280;6786;57.632;11.962;2022-11-15T05:45:32;100795.97;;;20.69;54.51
13011;BME280;6786;57.632;11.962;2022-11-15T05:48:05;100796.28;;;20.66;54.20
13011;BME280;6786;57.632;11.962;2022-11-15T05:50:36;100792.59;;;20.67;54.42
13011;BME280;6786;57.632;11.962;2022-11-15T05:53:07;100810.09;;;20.71;54.31
13011;BME280;6786;57.632;11.962;2022-11-15T05:55:37;100800.94;;;20.74;54.40
13011;BME280;6786;57.632;11.962;2022-11-15T05:58:05;100797.97;;;20.67;54.14
13011;BME280;6786;57.632;11.962;2022-11-15T06:00:34;100808.13;;;20.73;54.44
13011;BME280;6786;57.632;11.962;2022-11-15T06:03:02;100794.84;;;20.72;54.35
13011;BME280;6786;57.632;11.962;2022-11-15T06:05:30;100799.06;;;20.74;54.13
13011;BME280;6786;57.632;11.962;2022-11-15T06:07:58;100791.16;;;20.73;54.14
13011;BME280;6786;57.632;11.962;2022-11-15T06:10:27;100791.16;;;20.73;54.18
13011;BME280;6786;57.632;11.962;2022-11-15T06:12:59;100808.13;;;20.73;54.57
13011;BME280;6786;57.632;11.962;2022-11-15T06:15:27;100809.94;;;20.73;54.14
13011;BME280;6786;57.632;11.962;2022-11-15T06:17:56;100802.75;;;20.73;54.76
13011;BME280;6786;57.632;11.962;2022-11-15T06:20:25;100811.81;;;20.72;54.84
13011;BME280;6786;57.632;11.962;2022-11-15T06:22:56;100710.13;;;20.12;54.60
13011;BME280;6786;57.632;11.962;2022-11-15T06:25:25;100808.13;;;20.73;54.68
13011;BME280;6786;57.632;11.962;2022-11-15T06:27:55;100804.44;;;20.74;54.84
13011;BME280;6786;57.632;11.962;2022-11-15T06:30:24;100811.53;;;20.75;54.61
13011;BME280;6786;57.632;11.962;2022-11-15T06:32:59;100802.47;;;20.76;54.54
13011;BME280;6786;57.632;11.962;2022-11-15T06:35:27;100803.47;;;20.75;54.70
13011;BME280;6786;57.632;11.962;2022-11-15T06:37:56;100804.16;;;20.77;54.55
13011;BME280;6786;57.632;11.962;2022-11-15T06:40:24;100801.47;;;20.77;54.58
13011;BME280;6786;57.632;11.962;2022-11-15T06:42:58;100810.38;;;20.78;54.50
13011;BME280;6786;57.632;11.962;2022-11-15T06:45:26;100813.94;;;20.78;54.69
13011;BME280;6786;57.632;11.962;2022-11-15T06:47:54;100818.28;;;20.79;54.84
13011;BME280;6786;57.632;11.962;2022-11-15T06:50:23;100835.41;;;20.78;54.61
13011;BME280;6786;57.632;11.962;2022-11-15T06:52:51;100841.47;;;20.80;54.78
13011;BME280;6786;57.632;11.962;2022-11-15T06:55:19;100827.06;;;20.81;54.76
13011;BME280;6786;57.632;11.962;2022-11-15T06:57:47;100807.69;;;20.68;54.85
13011;BME280;6786;57.632;11.962;2022-11-15T07:00:19;100833.41;;;20.80;54.62
13011;BME280;6786;57.632;11.962;2022-11-15T07:02:47;100826.06;;;20.82;54.61
13011;BME280;6786;57.632;11.962;2022-11-15T07:05:16;100827.06;;;20.81;54.56
13011;BME280;6786;57.632;11.962;2022-11-15T07:07:51;100833.13;;;20.83;54.51
13011;BME280;6786;57.632;11.962;2022-11-15T07:10:19;100825.94;;;20.84;54.54
13011;BME280;6786;57.632;11.962;2022-11-15T07:12:48;100837.53;;;20.84;54.71
13011;BME280;6786;57.632;11.962;2022-11-15T07:15:18;100837.53;;;20.84;54.79
13011;BME280;6786;57.632;11.962;2022-11-15T07:17:46;100844.59;;;20.85;54.75
13011;BME280;6786;57.632;11.962;2022-11-15T07:20:15;100842.91;;;20.84;54.85
13011;BME280;6786;57.632;11.962;2022-11-15T07:22:43;100860.72;;;20.85;54.69
13011;BME280;6786;57.632;11.962;2022-11-15T07:25:11;100864.41;;;20.84;54.59
13011;BME280;6786;57.632;11.962;2022-11-15T07:27:39;100868.91;;;20.84;54.48
13011;BME280;6786;57.632;11.962;2022-11-15T07:30:08;100876.81;;;20.85;54.51
13011;BME280;6786;57.632;11.962;2022-11-15T07:32:38;100884.88;;;20.85;54.69
13011;BME280;6786;57.632;11.962;2022-11-15T07:35:06;100887.56;;;20.85;54.53
13011;BME280;6786;57.632;11.962;2022-11-15T07:37:34;100900.00;;;20.86;54.64
13011;BME280;6786;57.632;11.962;2022-11-15T07:40:03;100900.00;;;20.86;54.46
13011;BME280;6786;57.632;11.962;2022-11-15T07:42:31;100899.19;;;20.86;54.57
13011;BME280;6786;57.632;11.962;2022-11-15T07:45:16;100905.38;;;20.86;54.47
13011;BME280;6786;57.632;11.962;2022-11-15T07:47:46;100906.22;;;20.87;54.40
13011;BME280;6786;57.632;11.962;2022-11-15T07:50:15;100901.00;;;20.85;54.66
13011;BME280;6786;57.632;11.962;2022-11-15T07:52:43;100909.06;;;20.85;54.67
13011;BME280;6786;57.632;11.962;2022-11-15T07:55:11;100907.38;;;20.84;54.54
13011;BME280;6786;57.632;11.962;2022-11-15T07:57:39;100918.13;;;20.84;54.55
13011;BME280;6786;57.632;11.962;2022-11-15T08:00:08;100914.72;;;20.82;54.36
13011;BME280;6786;57.632;11.962;2022-11-15T08:02:36;100914.44;;;20.85;54.62
13011;BME280;6786;57.632;11.962;2022-11-15T08:05:06;100914.72;;;20.82;54.64
13011;BME280;6786;57.632;11.962;2022-11-15T08:07:35;100919.94;;;20.84;54.38
13011;BME280;6786;57.632;11.962;2022-11-15T08:10:05;100923.50;;;20.84;54.34
13011;BME280;6786;57.632;11.962;2022-11-15T08:12:34;100918.94;;;20.85;54.49
13011;BME280;6786;57.632;11.962;2022-11-15T08:15:03;100925.91;;;20.87;54.29
13011;BME280;6786;57.632;11.962;2022-11-15T08:17:31;100930.28;;;20.88;54.39
13011;BME280;6786;57.632;11.962;2022-11-15T08:20:00;100923.22;;;20.87;54.34
13011;BME280;6786;57.632;11.962;2022-11-15T08:22:31;100930.28;;;20.88;54.68
13011;BME280;6786;57.632;11.962;2022-11-15T08:24:59;100926.59;;;20.89;54.26
13011;BME280;6786;57.632;11.962;2022-11-15T08:27:29;100922.06;;;20.90;54.29
13011;BME280;6786;57.632;11.962;2022-11-15T08:29:57;100915.84;;;20.89;54.43
13011;BME280;6786;57.632;11.962;2022-11-15T08:32:25;100915.84;;;20.89;54.23
13011;BME280;6786;57.632;11.962;2022-11-15T08:34:53;100925.75;;;20.89;54.55
13011;BME280;6786;57.632;11.962;2022-11-15T08:37:21;100927.44;;;20.90;54.19
13011;BME280;6786;57.632;11.962;2022-11-15T08:39:51;100926.59;;;20.89;54.49
13011;BME280;6786;57.632;11.962;2022-11-15T08:42:19;100927.44;;;20.90;54.21
13011;BME280;6786;57.632;11.962;2022-11-15T08:44:47;100910.47;;;20.89;54.39
13011;BME280;6786;57.632;11.962;2022-11-15T08:47:15;100921.22;;;20.89;54.33
13011;BME280;6786;57.632;11.962;2022-11-15T08:49:43;100905.09;;;20.89;54.27
13011;BME280;6786;57.632;11.962;2022-11-15T08:52:11;100912.19;;;20.90;54.34
13011;BME280;6786;57.632;11.962;2022-11-15T08:54:39;100913.16;;;20.89;54.36
13011;BME280;6786;57.632;11.962;2022-11-15T08:57:08;100913.16;;;20.89;54.19
13011;BME280;6786;57.632;11.962;2022-11-15T08:59:36;100910.47;;;20.89;54.13
13011;BME280;6786;57.632;11.962;2022-11-15T09:02:04;100910.47;;;20.89;54.26
13011;BME280;6786;57.632;11.962;2022-11-15T09:04:33;100911.47;;;20.88;54.22
13011;BME280;6786;57.632;11.962;2022-11-15T09:07:01;100915.84;;;20.89;54.13
13011;BME280;6786;57.632;11.962;2022-11-15T09:09:29;100919.53;;;20.88;54.12
13011;BME280;6786;57.632;11.962;2022-11-15T09:11:57;100915.84;;;20.89;54.12
13011;BME280;6786;57.632;11.962;2022-11-15T09:14:29;100922.22;;;20.88;54.15
13011;BME280;6786;57.632;11.962;2022-11-15T09:16:57;100918.53;;;20.89;54.29
13011;BME280;6786;57.632;11.962;2022-11-15T09:19:25;100922.94;;;20.90;53.98
13011;BME280;6786;57.632;11.962;2022-11-15T09:21:53;100921.22;;;20.89;54.26
13011;BME280;6786;57.632;11.962;2022-11-15T09:24:22;100917.56;;;20.90;54.28
13011;BME280;6786;57.632;11.962;2022-11-15T09:26:50;100920.25;;;20.90;54.14
13011;BME280;6786;57.632;11.962;2022-11-15T09:29:18;100928.59;;;20.87;54.02
13011;BME280;6786;57.632;11.962;2022-11-15T09:31:48;100929.28;;;20.89;53.95
13011;BME280;6786;57.632;11.962;2022-11-15T09:34:16;100935.38;;;20.91;54.19
13011;BME280;6786;57.632;11.962;2022-11-15T09:36:44;100936.38;;;20.90;54.19
13011;BME280;6786;57.632;11.962;2022-11-15T09:39:12;100931.97;;;20.89;54.24
13011;BME280;6786;57.632;11.962;2022-11-15T09:42:09;100943.44;;;20.91;53.96
13011;BME280;6786;57.632;11.962;2022-11-15T09:44:51;100937.34;;;20.89;53.87
13011;BME280;6786;57.632;11.962;2022-11-15T09:47:55;100953.44;;;20.89;53.54
13011;BME280;6786;57.632;11.962;2022-11-15T09:50:32;100951.06;;;20.86;54.01
13011;BME280;6786;57.632;11.962;2022-11-15T09:53:02;100948.22;;;20.88;54.18
13011;BME280;6786;57.632;11.962;2022-11-15T09:55:36;100950.09;;;20.87;54.14
13011;BME280;6786;57.632;11.962;2022-11-15T09:58:15;100949.38;;;20.85;53.99
13011;BME280;6786;57.632;11.962;2022-11-15T10:00:48;100955.47;;;20.87;53.87
13011;BME280;6786;57.632;11.962;2022-11-15T10:03:27;100948.22;;;20.88;53.80
13011;BME280;6786;57.632;11.962;2022-11-15T10:05:57;100938.34;;;20.88;54.14
13011;BME280;6786;57.632;11.962;2022-11-15T10:08:46;100946.41;;;20.88;53.71
13011;BME280;6786;57.632;11.962;2022-11-15T10:11:18;100944.56;;;20.89;54.00
13011;BME280;6786;57.632;11.962;2022-11-15T10:14:10;100945.53;;;20.88;53.89
13011;BME280;6786;57.632;11.962;2022-11-15T10:17:01;100956.28;;;20.88;53.72
13011;BME280;6786;57.632;11.962;2022-11-15T10:19:39;100948.34;;;20.86;54.09
13011;BME280;6786;57.632;11.962;2022-11-15T10:22:21;100957.41;;;20.85;54.12
13011;BME280;6786;57.632;11.962;2022-11-15T10:25:00;100952.06;;;20.85;53.87
13011;BME280;6786;57.632;11.962;2022-11-15T10:27:29;100946.97;;;20.82;53.93
13011;BME280;6786;57.632;11.962;2022-11-15T10:29:57;100952.34;;;20.82;54.13
13011;BME280;6786;57.632;11.962;2022-11-15T10:32:26;100947.25;;;20.79;53.75
13011;BME280;6786;57.632;11.962;2022-11-15T10:34:55;100949.66;;;20.82;53.94
13011;BME280;6786;57.632;11.962;2022-11-15T10:37:28;100952.34;;;20.82;53.69
13011;BME280;6786;57.632;11.962;2022-11-15T10:40:04;100952.63;;;20.79;53.37
13011;BME280;6786;57.632;11.962;2022-11-15T10:42:32;100875.56;;;20.32;53.69
13011;BME280;6786;57.632;11.962;2022-11-15T10:45:00;100949.78;;;20.81;53.67
13011;BME280;6786;57.632;11.962;2022-11-15T10:47:30;100946.53;;;20.77;53.70
13011;BME280;6786;57.632;11.962;2022-11-15T10:50:25;100957.13;;;20.79;53.37
13011;BME280;6786;57.632;11.962;2022-11-15T10:52:54;100955.44;;;20.78;53.72
13011;BME280;6786;57.632;11.962;2022-11-15T10:55:25;100930.28;;;20.69;53.72
13011;BME280;6786;57.632;11.962;2022-11-15T10:57:57;100946.66;;;20.76;53.71
13011;BME280;6786;57.632;11.962;2022-11-15T11:00:36;100949.50;;;20.74;53.53
13011;BME280;6786;57.632;11.962;2022-11-15T11:03:24;100942.16;;;20.76;52.91
13011;BME280;6786;57.632;11.962;2022-11-15T11:06:09;100897.78;;;20.53;53.49
13011;BME280;6786;57.632;11.962;2022-11-15T11:08:38;100926.31;;;20.73;53.54
13011;BME280;6786;57.632;11.962;2022-11-15T11:11:07;100920.09;;;20.73;53.73
13011;BME280;6786;57.632;11.962;2022-11-15T11:13:38;100913.88;;;20.72;53.73
13011;BME280;6786;57.632;11.962;2022-11-15T11:19:26;100919.41;;;20.71;53.48
13011;BME280;6786;57.632;11.962;2022-11-15T11:22:03;100915.00;;;20.60;53.47
13011;BME280;6786;57.632;11.962;2022-11-15T11:24:36;100933.50;;;20.73;53.83
13011;BME280;6786;57.632;11.962;2022-11-15T11:27:17;100941.28;;;20.76;53.95
13011;BME280;6786;57.632;11.962;2022-11-15T11:29:58;100924.34;;;20.75;54.02
13011;BME280;6786;57.632;11.962;2022-11-15T11:32:53;100935.50;;;20.80;54.15
13011;BME280;6786;57.632;11.962;2022-11-15T11:35:29;100929.16;;;20.81;54.15
13011;BME280;6786;57.632;11.962;2022-11-15T11:38:15;100920.94;;;20.83;54.20
13011;BME280;6786;57.632;11.962;2022-11-15T11:40:57;100928.00;;;20.84;54.22
13011;BME280;6786;57.632;11.962;2022-11-15T11:43:33;100930.56;;;20.85;54.12
13011;BME280;6786;57.632;11.962;2022-11-15T11:46:28;100923.50;;;20.84;54.07
13011;BME280;6786;57.632;11.962;2022-11-15T11:49:04;100890.13;;;20.68;54.10
13011;BME280;6786;57.632;11.962;2022-11-15T11:51:39;100917.84;;;20.87;54.08
13011;BME280;6786;57.632;11.962;2022-11-15T11:54:13;100919.53;;;20.88;54.07
13011;BME280;6786;57.632;11.962;2022-11-15T11:56:44;100926.88;;;20.86;54.14
13011;BME280;6786;57.632;11.962;2022-11-15T11:59:17;100934.25;;;20.84;53.87
13011;BME280;6786;57.632;11.962;2022-11-15T12:01:47;100925.47;;;20.82;53.73
13011;BME280;6786;57.632;11.962;2022-11-15T12:04:19;100915.00;;;20.79;54.03
13011;BME280;6786;57.632;11.962;2022-11-15T12:06:52;100924.06;;;20.78;54.03
13011;BME280;6786;57.632;11.962;2022-11-15T12:09:34;100927.72;;;20.77;53.74
13011;BME280;6786;57.632;11.962;2022-11-15T12:12:08;100935.09;;;20.75;53.66
13011;BME280;6786;57.632;11.962;2022-11-15T12:14:42;100928.00;;;20.74;53.77
13011;BME280;6786;57.632;11.962;2022-11-15T12:17:14;100905.50;;;20.56;53.65
13011;BME280;6786;57.632;11.962;2022-11-15T12:19:45;100954.84;;;20.74;53.75
13011;BME280;6786;57.632;11.962;2022-11-15T12:22:18;100944.13;;;20.74;53.54
13011;BME280;6786;57.632;11.962;2022-11-15T12:24:53;100945.25;;;20.72;53.68
13011;BME280;6786;57.632;11.962;2022-11-15T12:27:33;100946.13;;;20.72;53.64
13011;BME280;6786;57.632;11.962;2022-11-15T12:30:10;100940.47;;;20.75;53.65
13011;BME280;6786;57.632;11.962;2022-11-15T12:32:49;100928.56;;;20.68;53.79
13011;BME280;6786;57.632;11.962;2022-11-15T12:35:28;100935.78;;;20.77;53.57
13011;BME280;6786;57.632;11.962;2022-11-15T12:37:57;100948.94;;;20.80;53.80
13011;BME280;6786;57.632;11.962;2022-11-15T12:40:30;100950.66;;;20.81;53.80
13011;BME280;6786;57.632;11.962;2022-11-15T12:43:02;100951.47;;;20.82;53.90
13011;BME280;6786;57.632;11.962;2022-11-15T12:45:32;100949.66;;;20.82;53.86
13011;BME280;6786;57.632;11.962;2022-11-15T12:51:05;100945.00;;;20.84;53.65
13011;BME280;6786;57.632;11.962;2022-11-15T12:53:34;100936.22;;;20.82;53.80
13011;BME280;6786;57.632;11.962;2022-11-15T12:56:18;100954.00;;;20.83;53.66
13011;BME280;6786;57.632;11.962;2022-11-15T12:58:49;100948.66;;;20.83;53.66
13011;BME280;6786;57.632;11.962;2022-11-15T13:04:25;100928.28;;;20.71;53.81
13011;BME280;6786;57.632;11.962;2022-11-15T13:06:55;100926.03;;;20.76;53.97
13011;BME280;6786;57.632;11.962;2022-11-15T13:09:52;100927.72;;;20.87;53.64
13011;BME280;6786;57.632;11.962;2022-11-15T13:12:51;100932.25;;;20.86;53.61
13011;BME280;6786;57.632;11.962;2022-11-15T13:18:40;100930.41;;;20.87;53.19
13011;BME280;6786;57.632;11.962;2022-11-15T13:21:20;100932.25;;;20.86;53.28
13011;BME280;6786;57.632;11.962;2022-11-15T13:24:12;100922.34;;;20.87;53.56
13011;BME280;6786;57.632;11.962;2022-11-15T13:26:41;100937.63;;;20.86;53.67
13011;BME280;6786;57.632;11.962;2022-11-15T13:29:17;100933.25;;;20.85;53.45